Paris, Paris Charles de Gaulle Airport (LFPG)

NameParis Charles de Gaulle Airport
CityParis
CountryFrance
ICAOLFPG
IATACDG
Altitude392 feet
CoordinatesGoogle Map
Live Air TrafficLiveATC.net
METARLFPG 230730Z 24010KT 8000 -DZ BKN006 19/19 Q1019 NOSIG
2024-07-23 07:30:00 Wind: Southwest (240°) 5.14 m/s - Visibility: 8000 m - Weather: Light Drizzle - Temperature: 19 °C - Dew point: 19 °C - Humidity: 100% - Pressure: 1019 hPa

Sorry, no flights used the airport in this database.